createdAt,value
2023-12-16T00:02:03.066Z,4.30
2023-12-16T00:04:38.106Z,4.40
2023-12-16T00:07:06.823Z,4.30
2023-12-16T00:09:35.262Z,4.40
2023-12-16T00:12:06.168Z,4.30
2023-12-16T00:14:38.577Z,4.30
2023-12-16T00:17:05.992Z,4.30
2023-12-16T00:19:34.742Z,4.20
2023-12-16T00:22:03.643Z,4.40
2023-12-16T00:24:30.593Z,4.30
2023-12-16T00:27:01.432Z,4.40
2023-12-16T00:29:29.837Z,4.40
2023-12-16T00:31:57.563Z,4.40
2023-12-16T00:34:28.394Z,4.40
2023-12-16T00:37:01.895Z,4.40
2023-12-16T00:39:32.040Z,4.30
2023-12-16T00:42:01.860Z,4.30
2023-12-16T00:44:34.141Z,4.40
2023-12-16T00:47:04.045Z,4.30
2023-12-16T00:49:34.535Z,4.20
2023-12-16T00:52:03.721Z,4.30
2023-12-16T00:54:30.846Z,4.40
2023-12-16T00:56:58.698Z,4.30
2023-12-16T00:59:33.155Z,4.30
2023-12-16T01:02:01.919Z,4.40
2023-12-16T01:04:30.217Z,4.30
2023-12-16T01:06:58.543Z,4.30
2023-12-16T01:09:33.410Z,4.30
2023-12-16T01:12:00.369Z,4.30
2023-12-16T01:14:28.617Z,4.40
2023-12-16T01:16:55.780Z,4.20
2023-12-16T01:19:23.407Z,4.20
2023-12-16T01:21:51.181Z,4.30
2023-12-16T01:24:18.115Z,4.20
2023-12-16T01:26:46.389Z,4.10
2023-12-16T01:29:19.215Z,4.10
2023-12-16T01:31:46.278Z,4.20
2023-12-16T01:34:13.312Z,4.20
2023-12-16T01:36:41.390Z,4.20
2023-12-16T01:39:10.364Z,4.20
2023-12-16T01:41:37.419Z,4.20
2023-12-16T01:44:10.889Z,4.20
2023-12-16T01:46:45.002Z,4.20
2023-12-16T01:49:12.646Z,4.20
2023-12-16T01:51:39.616Z,4.20
2023-12-16T01:54:14.013Z,4.20
2023-12-16T01:56:40.804Z,4.30
2023-12-16T01:59:09.001Z,4.10
2023-12-16T02:01:36.951Z,4.10
2023-12-16T02:04:04.900Z,4.00
2023-12-16T02:06:32.303Z,4.10
2023-12-16T02:08:59.128Z,4.10
2023-12-16T02:11:26.065Z,4.00
2023-12-16T02:13:54.029Z,4.00
2023-12-16T02:16:23.017Z,4.00
2023-12-16T02:18:52.465Z,4.00
2023-12-16T02:21:20.826Z,4.00
2023-12-16T02:23:47.962Z,3.90
2023-12-16T02:26:19.986Z,4.10
2023-12-16T02:28:48.806Z,3.90
2023-12-16T02:31:15.870Z,3.90
2023-12-16T02:33:45.673Z,3.90
2023-12-16T02:36:16.286Z,3.90
2023-12-16T02:38:43.457Z,3.90
2023-12-16T02:41:13.482Z,4.00
2023-12-16T02:43:45.773Z,4.00
2023-12-16T02:46:13.469Z,4.10
2023-12-16T02:48:40.436Z,4.10
2023-12-16T02:51:16.931Z,4.10
2023-12-16T02:53:44.000Z,4.00
2023-12-16T02:56:11.171Z,4.10
2023-12-16T02:58:39.417Z,4.10
2023-12-16T03:01:08.304Z,4.10
2023-12-16T03:03:38.598Z,4.20
2023-12-16T03:06:09.828Z,4.00
2023-12-16T03:08:37.234Z,4.00
2023-12-16T03:11:05.663Z,4.00
2023-12-16T03:13:33.677Z,4.00
2023-12-16T03:16:03.282Z,4.00
2023-12-16T03:18:31.500Z,3.90
2023-12-16T03:20:59.077Z,3.90
2023-12-16T03:23:26.606Z,4.00
2023-12-16T03:25:54.351Z,3.90
2023-12-16T03:28:21.279Z,3.90
2023-12-16T03:30:50.976Z,3.90
2023-12-16T03:33:19.322Z,3.90
2023-12-16T03:35:47.659Z,3.90
2023-12-16T03:38:14.727Z,3.90
2023-12-16T03:40:41.842Z,3.80
2023-12-16T03:43:08.897Z,3.90
2023-12-16T03:45:37.105Z,3.80
2023-12-16T03:48:06.787Z,3.80
2023-12-16T03:50:33.836Z,3.90
2023-12-16T03:53:01.584Z,3.90
2023-12-16T03:55:29.765Z,3.90
2023-12-16T03:58:05.848Z,4.00
2023-12-16T04:00:34.114Z,4.10
2023-12-16T04:03:02.415Z,4.10
2023-12-16T04:05:35.286Z,4.10
2023-12-16T04:08:03.075Z,4.20
2023-12-16T04:10:30.205Z,4.10
2023-12-16T04:12:57.207Z,4.10
2023-12-16T04:15:24.384Z,4.10
2023-12-16T04:17:51.502Z,4.10
2023-12-16T04:20:19.949Z,4.10
2023-12-16T04:22:50.132Z,4.10
2023-12-16T04:25:17.587Z,4.10
2023-12-16T04:27:44.842Z,4.10
2023-12-16T04:30:15.033Z,4.00
2023-12-16T04:32:42.689Z,4.00
2023-12-16T04:35:11.557Z,4.00
2023-12-16T04:37:39.274Z,3.90
2023-12-16T04:40:07.529Z,3.90
2023-12-16T04:42:34.551Z,3.90
2023-12-16T04:45:01.484Z,3.80
2023-12-16T04:47:28.477Z,3.80
2023-12-16T04:49:56.195Z,3.80
2023-12-16T04:52:26.031Z,3.90
2023-12-16T04:54:54.300Z,3.80
2023-12-16T04:57:24.902Z,3.80
2023-12-16T04:59:53.875Z,3.80
2023-12-16T05:02:23.569Z,3.80
2023-12-16T05:04:50.588Z,3.80
2023-12-16T05:07:21.730Z,4.00
2023-12-16T05:09:52.437Z,4.00
2023-12-16T05:15:15.996Z,4.10
2023-12-16T05:17:44.428Z,4.10
2023-12-16T05:20:15.164Z,4.20
2023-12-16T05:22:43.977Z,4.10
2023-12-16T05:25:12.071Z,4.20
2023-12-16T05:27:39.269Z,4.20
2023-12-16T05:30:11.033Z,4.30
2023-12-16T05:32:39.226Z,4.30
2023-12-16T05:35:08.747Z,4.30
2023-12-16T05:37:40.183Z,4.30
2023-12-16T05:40:11.774Z,4.30
2023-12-16T05:42:39.729Z,4.30
2023-12-16T05:45:08.788Z,4.40
2023-12-16T05:47:36.497Z,4.30
2023-12-16T05:50:05.152Z,4.50
2023-12-16T05:52:33.660Z,4.40
2023-12-16T05:55:00.912Z,4.40
2023-12-16T05:57:31.542Z,4.40
2023-12-16T05:59:59.538Z,4.40
2023-12-16T06:02:26.824Z,4.40
2023-12-16T06:04:55.484Z,4.40
2023-12-16T06:07:23.597Z,4.40
2023-12-16T06:09:51.131Z,4.40
2023-12-16T06:12:18.090Z,4.50
2023-12-16T06:14:47.433Z,4.50
2023-12-16T06:17:15.078Z,4.50
2023-12-16T06:19:42.101Z,4.40
2023-12-16T06:22:09.603Z,4.50
2023-12-16T06:24:44.086Z,4.60
2023-12-16T06:27:11.192Z,4.60
2023-12-16T06:29:41.653Z,4.50
2023-12-16T06:32:15.730Z,4.60
2023-12-16T06:34:44.975Z,4.60
2023-12-16T06:37:12.965Z,4.70
2023-12-16T06:39:39.943Z,4.70
2023-12-16T06:42:07.147Z,4.60
2023-12-16T06:44:36.830Z,4.60
2023-12-16T06:47:07.839Z,4.70
2023-12-16T06:49:35.804Z,4.60
2023-12-16T06:52:12.935Z,4.80
2023-12-16T06:54:41.176Z,4.70
2023-12-16T06:57:16.329Z,4.70
2023-12-16T06:59:44.199Z,4.70
2023-12-16T07:02:13.687Z,4.70
2023-12-16T07:04:47.537Z,4.70
2023-12-16T07:07:17.921Z,4.80
2023-12-16T07:09:45.373Z,4.80
2023-12-16T07:12:13.073Z,4.90
2023-12-16T07:14:42.961Z,4.80
2023-12-16T07:17:10.313Z,4.90
2023-12-16T07:19:39.118Z,4.90
2023-12-16T07:22:07.439Z,4.90
2023-12-16T07:24:36.583Z,4.90
2023-12-16T07:27:04.537Z,4.90
2023-12-16T07:29:37.737Z,5.00
2023-12-16T07:32:12.146Z,5.00
2023-12-16T07:34:42.815Z,5.10
2023-12-16T07:37:17.961Z,5.00
2023-12-16T07:39:47.312Z,5.10
2023-12-16T07:42:16.127Z,5.10
2023-12-16T07:44:44.346Z,5.10
2023-12-16T07:47:12.600Z,5.10
2023-12-16T07:49:39.740Z,5.20
2023-12-16T07:52:11.088Z,5.20
2023-12-16T07:54:38.668Z,5.20
2023-12-16T07:57:11.097Z,5.30
2023-12-16T07:59:42.716Z,5.30
2023-12-16T08:02:11.760Z,5.40
2023-12-16T08:04:42.804Z,5.30
2023-12-16T08:07:10.792Z,5.40
2023-12-16T08:09:41.163Z,5.40
2023-12-16T08:12:13.487Z,5.50
2023-12-16T08:14:41.509Z,5.70
2023-12-16T08:17:12.087Z,5.60
2023-12-16T08:19:41.774Z,5.60
2023-12-16T08:22:08.967Z,5.60
2023-12-16T08:24:40.456Z,5.70
2023-12-16T08:27:10.369Z,5.70
2023-12-16T08:29:38.507Z,5.60
2023-12-16T08:32:07.273Z,5.60
2023-12-16T08:34:35.421Z,5.80
2023-12-16T08:37:06.348Z,5.80
2023-12-16T08:39:36.526Z,5.90
2023-12-16T08:42:06.643Z,5.80
2023-12-16T08:47:43.056Z,5.80
2023-12-16T08:50:12.267Z,6.00
2023-12-16T08:52:41.174Z,5.90
2023-12-16T08:55:15.207Z,6.10
2023-12-16T08:57:42.767Z,6.00
2023-12-16T09:00:11.083Z,6.00
2023-12-16T09:02:38.192Z,6.00
2023-12-16T09:05:07.214Z,6.10
2023-12-16T09:07:35.866Z,6.10
2023-12-16T09:13:12.615Z,6.20
2023-12-16T09:18:37.734Z,6.30
2023-12-16T09:21:06.464Z,6.20
2023-12-16T09:23:36.777Z,6.20
2023-12-16T09:26:06.697Z,6.20
2023-12-16T09:28:39.759Z,6.30
2023-12-16T09:31:09.630Z,6.30
2023-12-16T09:33:40.736Z,6.30
2023-12-16T09:36:32.494Z,6.40
2023-12-16T09:39:01.263Z,6.40
2023-12-16T09:41:31.434Z,6.40
2023-12-16T09:44:01.894Z,6.40
2023-12-16T09:46:40.064Z,6.50
2023-12-16T09:49:07.174Z,6.50
2023-12-16T09:51:38.961Z,6.60
2023-12-16T09:54:09.782Z,6.60
2023-12-16T09:56:39.120Z,6.70
2023-12-16T09:59:10.694Z,6.70
2023-12-16T10:01:38.861Z,6.80
2023-12-16T10:04:06.958Z,6.90
2023-12-16T10:06:37.999Z,6.90
2023-12-16T10:09:08.128Z,7.00
2023-12-16T10:11:45.632Z,7.00
2023-12-16T10:17:24.172Z,7.20
2023-12-16T10:20:03.358Z,7.30
2023-12-16T10:22:43.811Z,7.50
2023-12-16T10:28:05.575Z,7.40
2023-12-16T10:33:20.028Z,7.60
2023-12-16T10:41:16.582Z,7.40
2023-12-16T10:43:45.798Z,7.50
2023-12-16T10:49:00.738Z,7.60
2023-12-16T10:51:33.275Z,7.80
2023-12-16T11:00:47.267Z,8.40
2023-12-16T11:06:16.010Z,8.50
2023-12-16T11:08:46.966Z,8.50
2023-12-16T11:11:14.598Z,8.50
2023-12-16T11:13:42.404Z,8.50
2023-12-16T11:22:43.123Z,8.40
2023-12-16T11:25:20.811Z,8.50
2023-12-16T11:28:01.948Z,8.60
2023-12-16T11:30:34.428Z,8.60
2023-12-16T11:33:07.958Z,8.60
2023-12-16T11:35:39.381Z,8.60
2023-12-16T11:38:26.638Z,8.60
2023-12-16T11:41:00.241Z,8.70
2023-12-16T13:42:39.130Z,7.00
2023-12-16T13:45:11.939Z,7.10
2023-12-16T13:47:41.524Z,7.10
2023-12-16T13:50:15.089Z,7.10
2023-12-16T13:52:46.864Z,7.00
2023-12-16T13:57:57.330Z,7.00
2023-12-16T14:00:28.803Z,6.90
2023-12-16T14:02:56.165Z,6.80
2023-12-16T14:05:23.166Z,6.80
2023-12-16T14:07:53.436Z,6.70
2023-12-16T14:10:28.769Z,6.70
2023-12-16T22:22:39.415Z,4.50
2023-12-16T22:39:53.854Z,4.40
2023-12-16T22:42:38.618Z,4.40
2023-12-16T22:48:12.163Z,4.40
2023-12-16T23:02:37.397Z,4.60
2023-12-16T23:05:08.185Z,4.50
2023-12-16T23:07:41.549Z,4.50
2023-12-16T23:12:53.934Z,4.50
2023-12-16T23:15:21.543Z,4.50
2023-12-16T23:17:49.945Z,4.50
2023-12-16T23:20:19.491Z,4.50
2023-12-16T23:22:48.200Z,4.60
2023-12-16T23:25:19.424Z,4.50
2023-12-16T23:27:51.736Z,4.50
2023-12-16T23:30:22.194Z,4.50
2023-12-16T23:32:52.721Z,4.50
2023-12-16T23:35:21.966Z,4.70
2023-12-16T23:37:54.894Z,4.60
2023-12-16T23:40:22.256Z,4.60
2023-12-16T23:42:52.593Z,4.60
2023-12-16T23:45:25.636Z,4.60
2023-12-16T23:47:57.775Z,4.70
2023-12-16T23:50:24.792Z,4.70
2023-12-16T23:52:57.391Z,4.80
2023-12-16T23:55:28.449Z,4.70
2023-12-16T23:57:56.193Z,4.80
